createdAt,value
2023-01-09T00:00:54.862Z,99849.20
2023-01-09T00:06:18.618Z,99859.91
2023-01-09T00:11:40.906Z,99852.80
2023-01-09T00:17:03.231Z,99852.80
2023-01-09T00:22:25.709Z,99846.55
2023-01-09T00:27:51.950Z,99842.25
2023-01-09T00:33:14.808Z,99836.08
2023-01-09T00:38:38.577Z,99829.92
2023-01-09T00:44:05.339Z,99822.80
2023-01-09T00:49:29.350Z,99817.33
2023-01-09T00:54:53.943Z,99830.61
2023-01-09T01:00:18.793Z,99832.41
2023-01-09T01:05:59.059Z,99817.43
2023-01-09T01:11:19.424Z,99806.81
2023-01-09T01:16:41.723Z,99820.15
2023-01-09T01:22:04.138Z,99821.20
2023-01-09T01:27:26.378Z,99801.86
2023-01-09T01:32:48.930Z,99795.80
2023-01-09T01:38:11.507Z,99790.58
2023-01-09T01:43:33.765Z,99789.73
2023-01-09T01:48:58.373Z,99781.83
2023-01-09T01:54:25.520Z,99780.03
2023-01-09T01:59:52.537Z,99778.33
2023-01-09T02:05:16.595Z,99777.47
2023-01-09T02:10:39.871Z,99766.00
2023-01-09T02:16:19.155Z,99772.91
2023-01-09T02:22:12.752Z,99756.42
2023-01-09T02:27:57.777Z,99760.52
2023-01-09T02:33:48.245Z,99754.27
2023-01-09T02:39:31.567Z,99760.33
2023-01-09T02:44:54.053Z,99758.52
2023-01-09T02:50:28.052Z,99759.27
2023-01-09T02:56:17.772Z,99760.03
2023-01-09T03:01:56.202Z,99757.27
2023-01-09T03:07:35.664Z,99760.81
2023-01-09T03:13:00.805Z,99759.76
2023-01-09T03:18:28.216Z,99745.53
2023-01-09T03:24:11.201Z,99731.41
2023-01-09T03:29:34.283Z,99733.00
2023-01-09T03:34:56.560Z,99713.56
2023-01-09T03:40:19.760Z,99718.02
2023-01-09T03:45:42.132Z,99720.48
2023-01-09T03:51:07.838Z,99709.00
2023-01-09T03:56:30.503Z,99705.39
2023-01-09T04:01:52.867Z,99703.69
2023-01-09T04:07:15.321Z,99696.57
2023-01-09T04:12:37.654Z,99688.61
2023-01-09T04:17:59.826Z,99697.53
2023-01-09T04:23:22.652Z,99698.48
2023-01-09T04:28:44.985Z,99694.97
2023-01-09T04:34:07.740Z,99685.41
2023-01-09T04:39:29.979Z,99680.84
2023-01-09T04:44:53.975Z,99677.55
2023-01-09T04:50:17.726Z,99691.77
2023-01-09T04:55:41.852Z,99694.42
2023-01-09T05:01:04.367Z,99698.78
2023-01-09T05:06:26.782Z,99693.55
2023-01-09T05:11:49.013Z,99691.84
2023-01-09T05:17:11.193Z,99696.30
2023-01-09T05:22:33.984Z,99690.89
2023-01-09T05:27:56.308Z,99689.28
2023-01-09T05:33:18.530Z,99683.13
2023-01-09T05:38:40.811Z,99677.92
2023-01-09T05:44:03.130Z,99655.08
2023-01-09T05:49:26.375Z,99654.50
2023-01-09T05:54:48.755Z,99647.86
2023-01-09T06:00:11.273Z,99638.30
2023-01-09T06:05:34.275Z,99628.16
2023-01-09T06:10:56.531Z,99630.36
2023-01-09T06:16:19.384Z,99629.98
2023-01-09T06:21:41.681Z,99627.05
2023-01-09T06:27:03.969Z,99622.57
2023-01-09T06:32:26.631Z,99609.31
2023-01-09T06:37:49.970Z,99605.03
2023-01-09T06:43:12.198Z,99606.72
2023-01-09T06:48:34.575Z,99606.31
2023-01-09T06:53:56.813Z,99608.88
2023-01-09T06:59:19.083Z,99614.48
2023-01-09T07:04:41.356Z,99609.93
2023-01-09T07:10:04.062Z,99611.38
2023-01-09T07:15:26.609Z,99615.03
2023-01-09T07:20:51.007Z,99619.86
2023-01-09T07:26:15.909Z,99608.56
2023-01-09T07:31:38.781Z,99601.56
2023-01-09T07:37:01.349Z,99607.05
2023-01-09T07:42:24.605Z,99608.76
2023-01-09T07:47:47.837Z,99617.46
2023-01-09T07:53:10.297Z,99624.37
2023-01-09T07:58:33.004Z,99636.67
2023-01-09T08:03:55.247Z,99634.21
2023-01-09T08:09:18.632Z,99625.41
2023-01-09T08:14:41.271Z,99615.41
2023-01-09T08:20:03.551Z,99621.17
2023-01-09T08:25:26.894Z,99610.67
2023-01-09T08:30:49.696Z,99610.58
2023-01-09T08:36:13.210Z,99610.13
2023-01-09T08:41:53.570Z,99604.37
2023-01-09T08:47:09.670Z,99597.37
2023-01-09T08:52:31.968Z,99584.57
2023-01-09T08:58:04.551Z,99574.45
2023-01-09T09:03:28.113Z,99566.41
2023-01-09T09:08:50.331Z,99564.44
2023-01-09T09:14:31.215Z,99558.28
2023-01-09T09:19:53.770Z,99549.66
2023-01-09T09:25:16.907Z,99553.71
2023-01-09T09:30:39.338Z,99550.78
2023-01-09T09:36:02.372Z,99552.97
2023-01-09T09:41:59.376Z,99546.30
2023-01-09T09:47:56.925Z,99522.20
2023-01-09T09:53:35.889Z,99516.63
2023-01-09T09:59:27.105Z,99517.48
2023-01-09T10:04:54.389Z,99510.84
2023-01-09T10:10:21.887Z,99513.19
2023-01-09T10:15:55.049Z,99522.56
2023-01-09T10:21:22.240Z,99508.34
2023-01-09T10:32:48.398Z,99486.25
2023-01-09T10:38:13.513Z,99480.59
2023-01-09T10:44:08.513Z,99474.28
2023-01-09T10:49:32.907Z,99476.59
2023-01-09T10:55:03.986Z,99486.78
2023-01-09T11:00:30.027Z,99489.44
2023-01-09T11:05:59.276Z,99485.82
2023-01-09T11:11:44.652Z,99478.70
2023-01-09T11:17:16.951Z,99484.97
2023-01-09T11:22:49.272Z,99474.45
2023-01-09T11:28:17.898Z,99467.34
2023-01-09T11:33:44.064Z,99466.38
2023-01-09T11:39:09.356Z,99459.83
2023-01-09T11:44:33.800Z,99457.17
2023-01-09T11:49:56.031Z,99462.59
2023-01-09T11:55:27.249Z,99453.03
2023-01-09T12:00:56.743Z,99454.80
2023-01-09T12:06:41.873Z,99449.42
2023-01-09T12:12:28.779Z,99434.00
2023-01-09T12:18:27.704Z,99435.70
2023-01-09T12:24:21.585Z,99433.78
2023-01-09T12:30:08.799Z,99423.09
2023-01-09T12:35:54.926Z,99426.48
2023-01-09T12:41:46.164Z,99411.28
2023-01-09T12:47:23.017Z,99411.28
2023-01-09T12:52:53.601Z,99402.91
2023-01-09T12:58:58.010Z,99394.59
2023-01-09T13:04:35.281Z,99391.73
2023-01-09T13:10:14.812Z,99398.55
2023-01-09T13:15:50.909Z,99391.53
2023-01-09T13:21:14.888Z,99398.55
2023-01-09T13:26:45.195Z,99386.33
2023-01-09T13:32:21.257Z,99384.30
2023-01-09T13:37:53.689Z,99373.56
2023-01-09T13:43:19.273Z,99385.58
2023-01-09T13:48:48.526Z,99383.88
2023-01-09T13:54:10.854Z,99397.91
2023-01-09T13:59:45.283Z,99397.25
2023-01-09T14:05:08.669Z,99395.47
2023-01-09T14:11:00.350Z,99412.27
2023-01-09T14:16:38.746Z,99407.98
2023-01-09T14:22:04.375Z,99407.36
2023-01-09T14:28:11.909Z,99417.37
2023-01-09T14:33:40.382Z,99420.88
2023-01-09T14:39:09.829Z,99425.96
2023-01-09T14:45:07.775Z,99427.03
2023-01-09T14:50:59.811Z,99440.42
2023-01-09T14:56:29.696Z,99431.16
2023-01-09T15:01:58.625Z,99441.05
2023-01-09T15:07:28.506Z,99454.45
2023-01-09T15:12:44.650Z,99465.08
2023-01-09T15:18:16.164Z,99442.02
2023-01-09T15:23:40.632Z,99447.33
2023-01-09T15:29:09.525Z,99444.67
2023-01-09T15:34:38.907Z,99456.26
2023-01-09T15:40:02.397Z,99470.28
2023-01-09T15:45:45.381Z,99471.35
2023-01-09T15:51:19.281Z,99485.67
2023-01-09T15:56:44.801Z,99492.69
2023-01-09T16:02:32.435Z,99507.88
2023-01-09T16:07:58.451Z,99504.20
2023-01-09T16:13:23.040Z,99511.50
2023-01-09T16:18:58.178Z,99506.08
2023-01-09T16:24:34.796Z,99510.25
2023-01-09T16:30:00.168Z,99527.15
2023-01-09T16:35:29.285Z,99525.34
2023-01-09T16:41:28.147Z,99529.70
2023-01-09T16:46:53.990Z,99533.31
2023-01-09T16:52:20.017Z,99542.13
2023-01-09T16:57:43.516Z,99551.80
2023-01-09T17:03:05.717Z,99554.67
2023-01-09T17:08:44.918Z,99569.66
2023-01-09T17:14:07.557Z,99569.73
2023-01-09T17:19:32.568Z,99577.70
2023-01-09T17:25:12.516Z,99567.19
2023-01-09T17:30:34.907Z,99554.01
2023-01-09T17:35:57.433Z,99565.59
2023-01-09T17:41:20.789Z,99577.92
2023-01-09T17:46:47.151Z,99591.95
2023-01-09T17:52:09.347Z,99593.86
2023-01-09T17:57:33.294Z,99594.81
2023-01-09T18:02:55.857Z,99599.28
2023-01-09T18:08:20.787Z,99592.16
2023-01-09T18:13:44.785Z,99578.02
2023-01-09T18:19:17.777Z,99572.84
2023-01-09T18:24:40.257Z,99597.47
2023-01-09T18:30:05.213Z,99608.84
2023-01-09T18:35:31.243Z,99616.70
2023-01-09T18:40:53.727Z,99615.01
2023-01-09T18:46:22.467Z,99627.27
2023-01-09T18:51:48.222Z,99629.07
2023-01-09T18:57:11.711Z,99623.65
2023-01-09T19:02:41.422Z,99641.19
2023-01-09T19:07:59.578Z,99644.70
2023-01-09T19:13:22.158Z,99652.35
2023-01-09T19:18:47.387Z,99647.92
2023-01-09T19:24:10.081Z,99656.64
2023-01-09T19:29:34.685Z,99668.97
2023-01-09T19:34:57.121Z,99666.09
2023-01-09T19:40:19.910Z,99668.65
2023-01-09T19:45:42.220Z,99682.72
2023-01-09T19:51:07.051Z,99689.63
2023-01-09T19:56:37.666Z,99712.59
2023-01-09T20:02:00.399Z,99728.23
2023-01-09T20:07:22.655Z,99745.70
2023-01-09T20:12:45.681Z,99749.01
2023-01-09T20:18:08.163Z,99757.73
2023-01-09T20:23:32.511Z,99758.30
2023-01-09T20:28:55.302Z,99746.70
2023-01-09T20:34:20.869Z,99761.49
2023-01-09T20:39:43.888Z,99771.09
2023-01-09T20:45:06.090Z,99775.36
2023-01-09T20:50:29.168Z,99777.91
2023-01-09T20:55:51.496Z,99789.12
2023-01-09T21:01:22.256Z,99803.05
2023-01-09T21:06:47.616Z,99806.46
2023-01-09T21:12:29.801Z,99805.50
2023-01-09T21:17:53.605Z,99802.84
2023-01-09T21:23:16.168Z,99821.47
2023-01-09T21:28:44.068Z,99824.98
2023-01-09T21:34:23.968Z,99838.35
2023-01-09T21:39:46.598Z,99845.23
2023-01-09T21:45:27.032Z,99853.95
2023-01-09T21:50:49.436Z,99868.11
2023-01-09T21:56:13.701Z,99879.70
2023-01-09T22:01:36.092Z,99896.41
2023-01-09T22:06:58.585Z,99906.10
2023-01-09T22:12:22.279Z,99918.55
2023-01-09T22:17:45.120Z,99912.69
2023-01-09T22:23:07.304Z,99923.39
2023-01-09T22:28:29.878Z,99923.50
2023-01-09T22:33:57.746Z,99928.17
2023-01-09T22:39:20.922Z,99946.89
2023-01-09T22:44:43.178Z,99948.77
2023-01-09T22:50:05.930Z,99958.75
2023-01-09T22:55:28.661Z,99972.52
2023-01-09T23:00:50.998Z,99981.84
2023-01-09T23:06:26.260Z,99980.31
2023-01-09T23:12:05.745Z,99983.53
2023-01-09T23:17:29.800Z,100001.94
2023-01-09T23:22:52.078Z,99999.52
2023-01-09T23:28:14.376Z,100014.16
2023-01-09T23:33:37.019Z,100017.13
2023-01-09T23:38:59.873Z,100021.25
2023-01-09T23:44:22.316Z,100039.58
2023-01-09T23:49:44.697Z,100040.67
2023-01-09T23:55:07.085Z,100054.02
